Time;durP1;ratioP1;P1;durP2;ratioP2;P2;SDS_P1;SDS_P2;PMS_P1;PMS_P2;Temp;Humidity;BMP_temperature;BMP_pressure;BME280_temperature;BME280_humidity;BME280_pressure;Samples;Min_cycle;Max_cycle;Signal;HPM_P1;HPM_P2
2020/12/01 00:02:25;;;;;;;12.63;3.83;;;7.60;93.90;;;;;;5010897;28;20066;-76
2020/12/01 00:04:51;;;;;;;10.52;3.45;;;7.60;93.90;;;;;;5011408;28;20423;-75
2020/12/01 00:07:17;;;;;;;11.82;3.50;;;7.70;93.90;;;;;;5011689;28;20092;-75
2020/12/01 00:09:43;;;;;;;11.13;3.88;;;7.70;93.90;;;;;;5011107;28;20030;-76
2020/12/01 00:12:09;;;;;;;16.48;4.15;;;7.70;93.90;;;;;;5011781;28;20033;-76
2020/12/01 00:14:35;;;;;;;11.07;3.38;;;7.70;93.90;;;;;;5011017;28;20366;-77
2020/12/01 00:17:00;;;;;;;11.68;3.70;;;7.70;93.90;;;;;;5010261;28;20052;-76
2020/12/01 00:19:26;;;;;;;13.98;3.58;;;7.70;93.90;;;;;;5011180;28;20041;-76
2020/12/01 00:21:52;;;;;;;14.35;3.58;;;7.70;94.00;;;;;;5011415;28;20065;-76
2020/12/01 00:24:18;;;;;;;14.93;4.03;;;7.80;94.00;;;;;;5010791;28;20377;-75
2020/12/01 00:26:43;;;;;;;11.52;3.35;;;7.80;94.00;;;;;;5010370;28;20477;-76
2020/12/01 00:29:10;;;;;;;13.98;3.63;;;7.80;94.00;;;;;;5012057;28;20481;-76
2020/12/01 00:31:43;;;;;;;11.98;4.05;;;7.80;94.00;;;;;;5011494;28;20041;-76
2020/12/01 00:34:11;;;;;;;8.13;2.92;;;7.80;94.00;;;;;;5010792;28;20034;-76
2020/12/01 00:36:36;;;;;;;16.00;3.05;;;7.80;94.00;;;;;;5010158;28;20032;-77
2020/12/01 00:39:04;;;;;;;10.27;2.63;;;7.80;94.00;;;;;;5012118;28;20373;-76
2020/12/01 00:41:30;;;;;;;12.30;3.10;;;7.80;94.30;;;;;;5010100;28;20115;-76
2020/12/01 00:43:56;;;;;;;17.80;3.10;;;7.90;94.00;;;;;;5010654;28;20045;-76
2020/12/01 00:46:22;;;;;;;14.35;3.08;;;7.90;94.00;;;;;;5012129;28;20033;-75
2020/12/01 00:48:48;;;;;;;7.22;3.20;;;7.80;93.90;;;;;;5011940;28;20489;-76
2020/12/01 00:51:14;;;;;;;8.98;2.45;;;7.90;93.90;;;;;;5010219;28;20420;-76
2020/12/01 00:53:40;;;;;;;9.88;2.75;;;7.90;94.00;;;;;;5011387;28;20026;-76
2020/12/01 00:56:05;;;;;;;11.18;3.45;;;7.90;93.90;;;;;;5010651;28;20122;-74
2020/12/01 00:58:31;;;;;;;11.20;2.80;;;7.90;93.90;;;;;;5011629;28;20085;-76
2020/12/01 01:00:57;;;;;;;8.85;3.30;;;7.90;93.90;;;;;;5014067;28;20489;-75
2020/12/01 01:03:23;;;;;;;10.05;3.22;;;7.90;93.90;;;;;;5015371;28;20438;-76
2020/12/01 01:05:48;;;;;;;15.95;3.92;;;7.90;94.00;;;;;;5014804;28;20028;-76
2020/12/01 01:08:14;;;;;;;12.00;3.00;;;7.90;94.00;;;;;;5014903;28;20018;-74
2020/12/01 01:10:40;;;;;;;8.45;2.45;;;8.00;94.00;;;;;;5014644;28;20022;-74
2020/12/01 01:13:05;;;;;;;9.73;2.85;;;7.90;94.00;;;;;;5015121;28;20153;-75
2020/12/01 01:15:34;;;;;;;8.00;3.13;;;7.90;94.00;;;;;;5014650;28;20473;-75
2020/12/01 01:18:01;;;;;;;7.47;2.65;;;7.90;94.20;;;;;;5015065;28;20025;-76
2020/12/01 01:20:27;;;;;;;6.38;2.60;;;7.90;94.30;;;;;;5014550;28;20049;-76
2020/12/01 01:22:54;;;;;;;7.95;2.65;;;7.80;94.40;;;;;;5014694;28;20040;-76
2020/12/01 01:25:20;;;;;;;6.30;2.15;;;7.90;94.50;;;;;;5015031;28;20115;-76
2020/12/01 01:27:47;;;;;;;4.95;2.55;;;7.90;94.40;;;;;;5014137;28;20076;-75
2020/12/01 01:30:15;;;;;;;4.43;2.05;;;7.90;94.40;;;;;;5013635;28;20026;-76
2020/12/01 01:32:41;;;;;;;7.45;2.25;;;8.00;94.50;;;;;;5014220;28;20053;-75
2020/12/01 01:35:06;;;;;;;6.10;1.88;;;8.00;94.50;;;;;;5013625;28;20081;-75
2020/12/01 01:37:32;;;;;;;2.97;1.17;;;8.00;94.50;;;;;;5014370;28;20355;-75
2020/12/01 01:39:58;;;;;;;6.93;1.65;;;8.00;94.40;;;;;;5014519;28;20049;-76
2020/12/01 01:42:24;;;;;;;5.38;2.10;;;8.10;94.50;;;;;;5014709;28;20061;-75
2020/12/01 01:44:49;;;;;;;3.50;1.33;;;8.10;94.40;;;;;;5012675;28;20022;-76
2020/12/01 01:47:20;;;;;;;4.05;1.67;;;8.10;94.40;;;;;;5013101;28;20025;-76
2020/12/01 01:49:50;;;;;;;8.53;2.10;;;8.10;94.50;;;;;;5012721;28;20514;-76
2020/12/01 01:52:28;;;;;;;6.18;2.05;;;8.00;94.50;;;;;;5014410;28;20378;-76
2020/12/01 01:54:59;;;;;;;3.80;1.67;;;8.00;94.60;;;;;;5014818;28;20042;-76
2020/12/01 01:57:26;;;;;;;4.13;1.52;;;8.00;94.60;;;;;;5013122;28;20022;-76
2020/12/01 01:59:53;;;;;;;2.78;1.45;;;8.00;94.60;;;;;;5014537;28;20032;-76
2020/12/01 02:02:19;;;;;;;4.22;1.17;;;8.00;94.70;;;;;;5012883;28;20026;-76
2020/12/01 02:04:44;;;;;;;5.68;1.55;;;7.90;94.70;;;;;;5013747;28;20037;-76
2020/12/01 02:07:10;;;;;;;3.85;1.10;;;7.90;94.80;;;;;;5014120;28;20026;-76
2020/12/01 02:09:42;;;;;;;3.08;1.33;;;7.90;94.80;;;;;;5012025;28;20022;-76
2020/12/01 02:12:10;;;;;;;2.53;1.10;;;7.90;94.80;;;;;;5014048;28;20030;-76
2020/12/01 02:14:43;;;;;;;3.03;0.95;;;7.90;94.80;;;;;;5013728;28;20488;-76
2020/12/01 02:17:20;;;;;;;3.85;0.90;;;7.90;94.80;;;;;;5012608;28;20028;-75
2020/12/01 02:19:48;;;;;;;1.92;0.70;;;7.90;94.80;;;;;;5012197;28;20014;-76
2020/12/01 02:22:17;;;;;;;1.95;0.50;;;7.90;94.80;;;;;;5013939;28;20030;-76
2020/12/01 02:24:44;;;;;;;2.92;0.70;;;7.90;94.90;;;;;;5013542;28;20032;-76
2020/12/01 02:27:13;;;;;;;1.45;0.63;;;7.90;94.90;;;;;;5013747;28;20405;-76
2020/12/01 02:29:43;;;;;;;0.65;0.40;;;7.80;94.90;;;;;;5011606;28;20086;-76
2020/12/01 02:32:08;;;;;;;1.20;0.40;;;7.80;94.90;;;;;;5012298;28;20140;-75
2020/12/01 02:34:39;;;;;;;0.30;0.30;;;7.80;94.90;;;;;;5011739;28;20137;-75
2020/12/01 02:37:05;;;;;;;5.57;0.60;;;7.80;94.90;;;;;;5012461;28;20454;-76
2020/12/01 02:39:32;;;;;;;0.73;0.40;;;7.80;94.90;;;;;;5012991;28;20033;-77
2020/12/01 02:42:00;;;;;;;1.20;0.50;;;7.70;94.90;;;;;;5013443;28;20125;-77
2020/12/01 02:44:26;;;;;;;0.30;0.30;;;7.70;95.00;;;;;;5012174;28;20030;-76
2020/12/01 02:46:53;;;;;;;1.13;0.38;;;7.70;95.00;;;;;;5011140;28;20454;-76
2020/12/01 02:49:20;;;;;;;0.63;0.40;;;7.70;95.00;;;;;;5012180;28;20034;-76
2020/12/01 02:51:46;;;;;;;1.10;0.50;;;7.70;95.00;;;;;;5010904;28;20053;-76
2020/12/01 02:54:12;;;;;;;0.57;0.55;;;7.70;95.00;;;;;;5013233;28;20021;-76
2020/12/01 02:56:37;;;;;;;0.82;0.32;;;7.70;95.00;;;;;;5011291;28;20093;-76
2020/12/01 02:59:03;;;;;;;1.33;0.80;;;7.60;95.00;;;;;;5013232;28;20466;-76
2020/12/01 03:01:29;;;;;;;1.38;0.50;;;7.70;95.00;;;;;;5011950;28;20466;-75
2020/12/01 03:03:55;;;;;;;0.50;0.50;;;7.60;95.00;;;;;;5012637;28;20029;-76
2020/12/01 03:06:21;;;;;;;0.43;0.43;;;7.60;95.00;;;;;;5013058;28;20022;-76
2020/12/01 03:08:48;;;;;;;0.95;0.55;;;7.60;95.00;;;;;;5011203;28;20033;-76
2020/12/01 03:11:15;;;;;;;2.50;0.55;;;7.60;95.00;;;;;;5012857;28;20030;-76
2020/12/01 03:13:41;;;;;;;4.15;0.70;;;7.60;95.10;;;;;;5011105;28;20076;-75
2020/12/01 03:16:08;;;;;;;0.85;0.60;;;7.60;95.10;;;;;;5013000;28;20029;-75
2020/12/01 03:18:39;;;;;;;0.43;0.43;;;7.60;95.10;;;;;;5012190;28;20025;-76
2020/12/01 03:21:05;;;;;;;0.77;0.40;;;7.60;95.10;;;;;;5012798;28;20022;-75
2020/12/01 03:23:32;;;;;;;1.88;0.45;;;7.60;95.10;;;;;;5012430;28;20128;-75
2020/12/01 03:25:59;;;;;;;0.47;0.40;;;7.60;95.10;;;;;;5012701;28;20026;-76
2020/12/01 03:28:25;;;;;;;0.85;0.60;;;7.50;95.00;;;;;;5012449;28;20109;-77
2020/12/01 03:30:50;;;;;;;2.25;0.52;;;7.50;95.00;;;;;;5011462;28;20057;-76
2020/12/01 03:33:17;;;;;;;0.75;0.55;;;7.50;95.10;;;;;;5010723;28;20033;-77
2020/12/01 03:35:42;;;;;;;3.75;0.68;;;7.40;95.10;;;;;;5010957;28;20441;-77
2020/12/01 03:38:08;;;;;;;1.88;1.20;;;7.40;95.10;;;;;;5010571;28;20109;-76
2020/12/01 03:40:33;;;;;;;0.50;0.40;;;7.50;95.20;;;;;;5011035;28;20482;-77
2020/12/01 03:42:59;;;;;;;0.88;0.60;;;7.40;95.20;;;;;;5011862;28;20034;-77
2020/12/01 03:45:25;;;;;;;1.05;0.35;;;7.40;95.20;;;;;;5011841;28;20037;-76
2020/12/01 03:47:53;;;;;;;2.83;0.63;;;7.40;95.20;;;;;;5009992;28;20360;-76
2020/12/01 03:50:19;;;;;;;0.45;0.45;;;7.40;95.20;;;;;;5010424;28;20569;-75
2020/12/01 03:52:44;;;;;;;2.17;0.43;;;7.40;95.20;;;;;;5009375;28;20050;-75
2020/12/01 03:55:10;;;;;;;1.70;0.40;;;7.40;95.20;;;;;;5012032;28;20029;-75
2020/12/01 03:57:42;;;;;;;0.43;0.30;;;7.40;95.30;;;;;;5010439;28;20478;-76
2020/12/01 04:00:08;;;;;;;;;;;7.40;95.30;;;;;;5012997;28;20065;-77
2020/12/01 04:02:34;;;;;;;0.68;0.68;;;7.40;95.20;;;;;;5011699;28;19905;-83
2020/12/01 04:04:59;;;;;;;3.65;1.50;;;7.40;95.30;;;;;;5012410;28;20022;-76
2020/12/01 04:07:25;;;;;;;0.73;0.40;;;7.50;95.30;;;;;;5011748;28;20030;-77
2020/12/01 04:09:50;;;;;;;1.42;0.50;;;7.50;95.30;;;;;;5011745;28;20097;-77
2020/12/01 04:12:16;;;;;;;0.40;0.40;;;7.60;95.30;;;;;;5011831;28;20030;-76
2020/12/01 04:14:41;;;;;;;0.40;0.40;;;7.60;95.20;;;;;;5011620;28;20082;-76
2020/12/01 04:17:07;;;;;;;2.47;0.50;;;7.70;95.20;;;;;;5011854;28;20034;-76
2020/12/01 04:19:33;;;;;;;0.73;0.40;;;7.70;95.10;;;;;;5011950;28;20033;-76
2020/12/01 04:21:58;;;;;;;1.35;0.65;;;7.80;95.10;;;;;;5011297;28;20088;-77
2020/12/01 04:24:24;;;;;;;1.35;0.43;;;7.80;95.10;;;;;;5027308;28;20054;-76
2020/12/01 04:26:50;;;;;;;3.20;0.40;;;7.80;95.00;;;;;;5026622;28;20046;-76
2020/12/01 04:29:15;;;;;;;0.65;0.50;;;7.80;95.00;;;;;;5027227;28;20021;-76
2020/12/01 04:31:41;;;;;;;0.30;0.30;;;7.90;95.00;;;;;;5011320;28;20471;-77
2020/12/01 04:34:06;;;;;;;2.15;0.30;;;7.90;95.00;;;;;;5012790;28;20026;-76
2020/12/01 04:36:32;;;;;;;1.15;0.43;;;7.90;95.00;;;;;;5016045;28;20049;-76
2020/12/01 04:38:58;;;;;;;0.65;0.65;;;7.90;95.00;;;;;;5015131;28;20089;-76
2020/12/01 04:41:24;;;;;;;0.30;0.30;;;7.90;95.00;;;;;;5015696;28;20049;-76
2020/12/01 04:43:57;;;;;;;1.60;0.50;;;7.90;95.00;;;;;;5015139;28;20021;-76
2020/12/01 04:46:26;;;;;;;1.08;0.40;;;7.90;95.00;;;;;;5015712;28;20025;-77
2020/12/01 04:49:18;;;;;;;0.30;0.30;;;8.00;95.00;;;;;;5030069;28;20096;-77
2020/12/01 04:51:51;;;;;;;;;;;8.00;94.90;;;;;;5014866;28;20129;-77
2020/12/01 04:54:25;;;;;;;1.77;0.50;;;7.90;94.90;;;;;;5015605;28;19912;-77
2020/12/01 04:57:27;;;;;;;1.70;1.08;;;7.90;94.90;;;;;;5030151;28;20026;-77
2020/12/01 05:00:09;;;;;;;3.28;0.80;;;7.90;94.90;;;;;;5014526;28;20470;-76
2020/12/01 05:02:49;;;;;;;3.08;0.55;;;7.90;94.90;;;;;;5030551;28;20429;-76
2020/12/01 05:08:35;;;;;;;0.45;0.43;;;8.00;94.90;;;;;;5021376;28;20030;-76
2020/12/01 05:11:16;;;;;;;0.32;0.32;;;8.00;94.90;;;;;;5014548;28;20168;-76
2020/12/01 05:13:45;;;;;;;1.03;0.40;;;8.00;94.90;;;;;;5014715;28;20129;-77
2020/12/01 05:16:26;;;;;;;1.77;0.73;;;8.00;94.90;;;;;;5014732;28;20121;-76
2020/12/01 05:18:52;;;;;;;5.05;0.77;;;8.00;94.90;;;;;;5029628;28;20050;-76
2020/12/01 05:21:24;;;;;;;0.57;0.55;;;8.00;94.90;;;;;;5030144;28;20060;-77
2020/12/01 05:23:50;;;;;;;0.57;0.50;;;8.00;94.90;;;;;;5014326;28;20022;-77
2020/12/01 05:26:19;;;;;;;1.75;0.60;;;8.00;95.00;;;;;;5030055;28;20018;-77
2020/12/01 05:28:57;;;;;;;1.40;0.70;;;8.00;94.90;;;;;;5008961;28;20462;-78
2020/12/01 05:31:38;;;;;;;3.22;0.70;;;8.00;94.90;;;;;;5013300;28;20018;-77
2020/12/01 05:34:06;;;;;;;2.20;0.73;;;8.00;95.10;;;;;;5007644;28;20030;-76
2020/12/01 05:36:36;;;;;;;1.67;0.73;;;8.00;94.90;;;;;;5002073;28;20014;-76
2020/12/01 05:39:23;;;;;;;1.05;0.73;;;8.00;94.90;;;;;;5003802;28;20462;-78
2020/12/01 05:42:05;;;;;;;1.70;0.65;;;8.00;94.90;;;;;;5000538;28;20019;-77
2020/12/01 05:44:33;;;;;;;0.55;0.55;;;8.00;94.90;;;;;;4992597;28;20019;-77
2020/12/01 05:47:16;;;;;;;1.05;0.70;;;8.00;94.90;;;;;;4993115;28;20022;-77
2020/12/01 05:49:47;;;;;;;4.10;0.80;;;8.00;94.90;;;;;;4994519;28;20047;-76
2020/12/01 05:52:25;;;;;;;1.95;0.70;;;8.00;95.00;;;;;;4992891;28;20042;-76
2020/12/01 05:55:16;;;;;;;0.60;0.43;;;8.00;95.00;;;;;;4992896;28;20449;-76
2020/12/01 05:57:43;;;;;;;2.30;0.60;;;8.00;94.90;;;;;;4994004;28;20022;-76
2020/12/01 06:00:23;;;;;;;1.50;0.68;;;7.90;95.00;;;;;;4994617;28;20471;-76
2020/12/01 06:03:06;;;;;;;1.45;0.73;;;8.00;95.00;;;;;;5013539;28;20108;-76
2020/12/01 06:05:37;;;;;;;1.42;0.80;;;7.90;95.10;;;;;;5012690;28;20029;-74
2020/12/01 06:08:44;;;;;;;5.30;1.00;;;7.90;95.00;;;;;;5011852;28;20148;-76
2020/12/01 06:11:19;;;;;;;2.75;0.90;;;8.00;95.10;;;;;;5011586;28;20030;-74
2020/12/01 06:13:45;;;;;;;2.33;0.65;;;7.90;95.10;;;;;;5011052;28;20049;-75
2020/12/01 06:16:27;;;;;;;4.53;0.93;;;8.00;95.10;;;;;;5011609;28;20105;-75
2020/12/01 06:19:14;;;;;;;1.45;0.70;;;8.00;95.00;;;;;;5009194;28;20493;-73
2020/12/01 06:21:54;;;;;;;1.95;1.08;;;8.00;95.00;;;;;;5010179;28;20030;-74
2020/12/01 06:24:40;;;;;;;2.65;0.73;;;8.00;95.00;;;;;;5011536;28;20109;-75
2020/12/01 06:27:47;;;;;;;2.47;0.70;;;8.00;95.00;;;;;;5009564;28;20071;-73
2020/12/01 06:30:46;;;;;;;6.03;1.10;;;8.10;95.00;;;;;;5012102;28;20026;-77
2020/12/01 06:33:15;;;;;;;3.47;1.60;;;8.10;94.90;;;;;;5012372;28;20037;-76
2020/12/01 06:36:14;;;;;;;1.08;0.85;;;8.00;95.00;;;;;;5012281;28;20124;-76
2020/12/01 06:39:01;;;;;;;1.45;0.93;;;8.10;95.00;;;;;;5012479;28;20148;-79
2020/12/01 06:41:35;;;;;;;7.53;2.13;;;8.10;95.00;;;;;;5013608;28;20033;-76
2020/12/01 06:44:01;;;;;;;1.90;0.80;;;8.00;95.00;;;;;;5013176;28;20026;-77
2020/12/01 06:46:38;;;;;;;4.40;1.52;;;8.10;95.10;;;;;;5013615;28;20037;-76
2020/12/01 06:49:08;;;;;;;1.20;0.80;;;8.10;95.10;;;;;;5011481;28;20022;-76
2020/12/01 06:51:34;;;;;;;5.00;0.90;;;8.10;95.10;;;;;;5011878;28;20052;-76
2020/12/01 06:54:09;;;;;;;3.28;1.00;;;8.10;95.00;;;;;;5011907;28;20022;-76
2020/12/01 06:56:35;;;;;;;3.03;0.98;;;8.20;95.00;;;;;;5012661;28;20033;-76
2020/12/01 06:59:12;;;;;;;3.10;1.20;;;8.20;95.00;;;;;;5012704;28;20434;-77
2020/12/01 07:01:39;;;;;;;2.05;0.90;;;8.20;95.00;;;;;;5013405;28;20026;-76
2020/12/01 07:04:08;;;;;;;4.55;1.17;;;8.20;95.00;;;;;;5012923;28;20037;-76
2020/12/01 07:06:55;;;;;;;6.18;1.30;;;8.30;95.00;;;;;;5013280;28;20532;-76
2020/12/01 07:09:28;;;;;;;3.33;1.23;;;8.30;94.90;;;;;;5013151;28;20045;-76
2020/12/01 07:12:22;;;;;;;5.95;1.20;;;8.30;95.00;;;;;;5012641;28;20044;-77
2020/12/01 07:14:59;;;;;;;4.00;1.00;;;8.30;95.00;;;;;;5011005;28;20037;-77
2020/12/01 07:17:38;;;;;;;1.40;0.70;;;8.30;95.00;;;;;;5013186;28;20079;-76
2020/12/01 07:20:13;;;;;;;3.00;0.93;;;8.40;95.00;;;;;;5011405;28;20033;-77
2020/12/01 07:23:05;;;;;;;1.67;0.93;;;8.40;95.00;;;;;;5012854;28;20026;-76
2020/12/01 07:25:48;;;;;;;5.13;1.10;;;8.40;95.00;;;;;;5013077;28;20029;-77
2020/12/01 07:28:22;;;;;;;1.42;0.93;;;8.40;95.00;;;;;;5013079;28;20021;-77
2020/12/01 07:30:58;;;;;;;3.30;1.30;;;8.40;95.00;;;;;;5011068;28;20036;-78
2020/12/01 07:33:28;;;;;;;1.00;0.85;;;8.40;95.10;;;;;;5011559;28;20063;-77
2020/12/01 07:36:11;;;;;;;1.67;0.93;;;8.50;95.10;;;;;;5012190;28;20022;-77
2020/12/01 07:38:46;;;;;;;2.65;0.90;;;8.50;95.10;;;;;;5012911;28;20105;-77
2020/12/01 07:41:27;;;;;;;4.18;1.40;;;8.60;95.10;;;;;;5012797;28;20026;-77
2020/12/01 07:44:12;;;;;;;2.42;0.75;;;8.60;95.10;;;;;;5012387;28;20017;-77
2020/12/01 07:49:22;;;;;;;3.05;0.93;;;8.60;95.20;;;;;;5012945;28;20109;-77
2020/12/01 07:51:52;;;;;;;1.75;0.85;;;8.60;95.20;;;;;;5012138;28;20046;-78
2020/12/01 07:54:23;;;;;;;3.30;1.00;;;8.60;95.20;;;;;;5011590;28;20449;-77
2020/12/01 07:56:49;;;;;;;2.38;1.02;;;8.70;95.20;;;;;;5012333;28;20036;-77
2020/12/01 07:59:15;;;;;;;2.80;1.15;;;8.70;95.20;;;;;;5012769;28;20025;-77
2020/12/01 08:01:43;;;;;;;0.43;0.43;;;8.70;95.20;;;;;;5011348;28;20022;-77
2020/12/01 08:04:18;;;;;;;5.38;1.52;;;8.70;95.20;;;;;;5010907;28;20034;-78
2020/12/01 08:06:44;;;;;;;1.25;0.75;;;8.80;95.20;;;;;;5011456;28;20073;-77
2020/12/01 08:09:20;;;;;;;2.58;0.70;;;8.80;95.20;;;;;;5015048;28;20355;-77
2020/12/01 08:11:47;;;;;;;1.27;1.00;;;8.80;95.20;;;;;;5015469;28;20128;-76
2020/12/01 08:14:14;;;;;;;3.25;0.70;;;8.80;95.20;;;;;;5016596;28;20417;-76
2020/12/01 08:16:40;;;;;;;1.13;0.77;;;8.90;95.30;;;;;;5015123;28;20026;-77
2020/12/01 08:19:08;;;;;;;3.28;0.73;;;8.90;95.30;;;;;;5016299;28;20027;-77
2020/12/01 08:21:36;;;;;;;5.78;0.52;;;8.90;95.30;;;;;;5015111;28;20405;-77
2020/12/01 08:24:06;;;;;;;3.25;0.70;;;8.90;95.20;;;;;;5014742;28;20022;-77
2020/12/01 08:26:36;;;;;;;2.00;0.40;;;9.00;95.30;;;;;;5015216;28;20029;-76
2020/12/01 08:29:01;;;;;;;0.63;0.50;;;9.00;95.30;;;;;;5015778;28;20109;-77
2020/12/01 08:31:55;;;;;;;3.20;0.52;;;9.00;95.30;;;;;;5014857;28;20129;-77
2020/12/01 08:34:41;;;;;;;0.30;0.30;;;9.00;95.30;;;;;;5015151;28;20026;-76
2020/12/01 08:37:34;;;;;;;1.30;0.60;;;9.00;95.30;;;;;;5014482;28;20053;-77
2020/12/01 08:40:04;;;;;;;1.45;0.52;;;9.00;95.40;;;;;;5015223;28;20401;-77
2020/12/01 08:42:43;;;;;;;1.67;0.60;;;9.00;95.40;;;;;;5016225;28;20022;-77
2020/12/01 08:45:09;;;;;;;3.90;0.73;;;9.00;95.40;;;;;;5015247;28;20026;-77
2020/12/01 08:47:35;;;;;;;0.40;0.40;;;9.00;95.40;;;;;;5014640;28;20062;-77
2020/12/01 08:50:22;;;;;;;5.40;1.05;;;9.00;95.40;;;;;;5014086;28;20053;-77
2020/12/01 08:52:48;;;;;;;3.03;0.98;;;9.00;95.30;;;;;;5015397;28;20057;-77
2020/12/01 08:55:29;;;;;;;1.10;0.52;;;9.00;95.40;;;;;;5014112;28;20022;-77
2020/12/01 08:58:06;;;;;;;8.05;1.38;;;9.00;95.40;;;;;;5014103;28;20109;-77
2020/12/01 09:00:34;;;;;;;1.15;0.90;;;9.00;95.40;;;;;;5014558;28;20049;-77
2020/12/01 09:03:10;;;;;;;1.98;0.75;;;9.00;95.40;;;;;;5013952;28;20137;-77
2020/12/01 09:05:45;;;;;;;2.22;1.23;;;9.00;95.40;;;;;;5015516;28;20025;-77
2020/12/01 09:11:42;;;;;;;5.70;0.80;;;9.00;95.50;;;;;;5015020;28;20034;-78
2020/12/01 09:17:12;;;;;;;9.93;2.00;;;9.10;95.50;;;;;;5015377;28;20494;-78
2020/12/01 09:19:54;;;;;;;1.05;0.70;;;9.10;95.40;;;;;;5014443;28;20022;-76
2020/12/01 09:22:31;;;;;;;3.03;0.60;;;9.10;95.40;;;;;;5015640;28;20034;-77
2020/12/01 09:25:27;;;;;;;3.53;1.33;;;9.10;95.40;;;;;;5012992;28;20045;-77
2020/12/01 09:27:55;;;;;;;2.28;1.30;;;9.10;95.40;;;;;;5011327;28;20490;-80
2020/12/01 09:30:28;;;;;;;2.35;0.55;;;9.10;95.40;;;;;;5015037;28;20109;-76
2020/12/01 09:32:55;;;;;;;2.05;0.63;;;9.10;95.40;;;;;;5014536;28;20041;-78
2020/12/01 09:35:21;;;;;;;2.10;1.17;;;9.10;95.40;;;;;;5014687;28;20517;-77
2020/12/01 09:37:46;;;;;;;0.90;0.50;;;9.10;95.40;;;;;;5014691;28;20109;-77
2020/12/01 09:40:13;;;;;;;6.03;0.95;;;9.10;95.40;;;;;;5013189;28;20032;-77
2020/12/01 09:42:40;;;;;;;3.85;1.10;;;9.10;95.40;;;;;;5013471;28;20132;-77
2020/12/01 09:45:12;;;;;;;2.05;0.95;;;9.10;95.40;;;;;;5013184;28;20412;-77
2020/12/01 09:47:58;;;;;;;3.60;1.02;;;9.10;95.40;;;;;;5014906;28;20026;-77
2020/12/01 09:50:28;;;;;;;2.15;1.35;;;9.10;95.40;;;;;;5014668;28;20084;-77
2020/12/01 10:25:52;;;;;;;3.53;0.80;;;9.40;95.30;;;;;;5013792;28;20492;-77
2020/12/01 10:29:44;;;;;;;2.50;0.70;;;9.40;95.30;;;;;;5013536;28;20026;-77
2020/12/01 10:36:38;;;;;;;3.28;1.05;;;9.40;95.30;;;;;;5013557;28;20071;-77
2020/12/01 10:39:06;;;;;;;2.25;0.88;;;9.40;95.30;;;;;;5012953;28;20025;-77
2020/12/01 10:41:33;;;;;;;3.88;0.93;;;9.40;95.30;;;;;;5012571;28;20022;-77
2020/12/01 10:44:00;;;;;;;1.25;0.73;;;9.40;95.30;;;;;;5012122;28;20126;-78
2020/12/01 10:46:26;;;;;;;3.08;0.82;;;9.50;95.30;;;;;;5012623;28;20103;-76
2020/12/01 10:48:52;;;;;;;5.47;1.05;;;9.40;95.20;;;;;;5013461;28;20072;-78
2020/12/01 10:51:17;;;;;;;7.47;1.02;;;9.50;95.30;;;;;;5011904;28;20022;-76
2020/12/01 10:53:43;;;;;;;1.95;0.70;;;9.50;95.30;;;;;;5012139;28;20057;-76
2020/12/01 10:56:09;;;;;;;1.92;0.50;;;9.50;95.20;;;;;;5011604;28;20394;-77
2020/12/01 10:58:35;;;;;;;7.10;1.25;;;9.50;95.20;;;;;;5013455;28;20049;-77
2020/12/01 11:01:01;;;;;;;2.63;0.73;;;9.50;95.20;;;;;;5012877;28;20030;-78
2020/12/01 11:03:28;;;;;;;2.42;0.60;;;9.50;95.20;;;;;;5013172;28;20028;-77
2020/12/01 11:05:53;;;;;;;2.90;0.95;;;9.50;95.20;;;;;;5013394;28;20026;-77
2020/12/01 11:08:19;;;;;;;3.33;0.60;;;9.60;95.20;;;;;;5011493;28;20026;-77
2020/12/01 11:10:45;;;;;;;2.75;0.80;;;9.60;95.20;;;;;;5013003;28;20363;-77
2020/12/01 11:13:10;;;;;;;4.18;0.75;;;9.60;95.10;;;;;;5012372;28;20107;-77
2020/12/01 11:15:36;;;;;;;3.22;0.93;;;9.60;95.10;;;;;;5011705;28;20096;-77
2020/12/01 11:18:02;;;;;;;3.47;1.58;;;9.60;95.10;;;;;;5011542;28;20058;-78
2020/12/01 11:20:28;;;;;;;1.67;0.40;;;9.70;95.10;;;;;;5013021;28;20061;-77
2020/12/01 11:22:54;;;;;;;4.35;1.10;;;9.70;95.10;;;;;;5011840;28;20057;-77
2020/12/01 11:25:20;;;;;;;2.10;1.10;;;9.70;95.10;;;;;;5012480;28;20441;-77
2020/12/01 11:27:47;;;;;;;0.88;0.60;;;9.70;95.00;;;;;;5011803;28;20401;-77
2020/12/01 11:30:14;;;;;;;3.47;0.80;;;9.70;95.10;;;;;;5012693;28;20113;-77
2020/12/01 11:32:40;;;;;;;1.33;0.70;;;9.80;95.00;;;;;;5011341;28;20371;-77
2020/12/01 11:35:06;;;;;;;0.65;0.47;;;9.70;95.00;;;;;;5012499;28;20021;-77
2020/12/01 11:37:33;;;;;;;6.30;1.05;;;9.80;95.00;;;;;;5011437;28;20021;-77
2020/12/01 11:39:58;;;;;;;1.85;0.60;;;9.80;95.00;;;;;;5012429;28;20108;-77
2020/12/01 11:42:24;;;;;;;2.08;0.95;;;9.80;95.00;;;;;;5012050;28;20076;-77
2020/12/01 11:44:50;;;;;;;2.65;0.80;;;9.80;95.00;;;;;;5011198;28;20080;-77
2020/12/01 11:47:16;;;;;;;5.35;1.30;;;9.80;95.00;;;;;;5010882;28;20029;-76
2020/12/01 11:49:41;;;;;;;4.70;1.13;;;9.80;94.90;;;;;;5012814;28;20152;-77
2020/12/01 11:52:07;;;;;;;2.00;1.15;;;9.90;95.00;;;;;;5010028;28;20048;-77
2020/12/01 11:54:33;;;;;;;1.35;0.75;;;9.90;94.90;;;;;;5012308;28;20050;-77
2020/12/01 11:56:59;;;;;;;7.05;1.58;;;9.90;95.00;;;;;;5012514;28;20117;-76
2020/12/01 11:59:24;;;;;;;5.35;0.80;;;9.90;94.90;;;;;;5010643;28;20026;-77
2020/12/01 12:01:50;;;;;;;2.83;0.75;;;10.00;94.90;;;;;;5011067;28;20044;-76
2020/12/01 12:04:16;;;;;;;1.02;0.52;;;9.90;94.90;;;;;;5012071;28;20026;-77
2020/12/01 12:06:42;;;;;;;1.05;0.60;;;9.90;94.90;;;;;;5011126;28;20022;-77
2020/12/01 12:09:11;;;;;;;2.88;0.60;;;9.90;94.90;;;;;;5011767;28;20030;-77
2020/12/01 12:11:37;;;;;;;6.38;0.93;;;9.90;94.90;;;;;;5011953;28;20025;-77
2020/12/01 12:14:04;;;;;;;4.30;0.70;;;9.90;94.90;;;;;;5010499;28;20026;-84
2020/12/01 12:16:30;;;;;;;3.05;1.10;;;10.00;94.90;;;;;;5011071;28;20014;-77
2020/12/01 12:18:55;;;;;;;5.78;0.75;;;10.00;94.90;;;;;;5010892;28;20029;-77
2020/12/01 12:21:21;;;;;;;3.78;0.63;;;10.00;94.90;;;;;;5010541;28;20026;-76
2020/12/01 12:23:48;;;;;;;0.90;0.52;;;10.00;94.80;;;;;;5010955;28;20022;-76
2020/12/01 12:26:14;;;;;;;2.13;0.68;;;10.00;94.90;;;;;;5010046;28;20025;-77
2020/12/01 12:28:40;;;;;;;2.83;0.70;;;10.00;94.90;;;;;;5012149;28;20588;-76
2020/12/01 12:31:06;;;;;;;6.50;0.60;;;10.00;94.90;;;;;;5010217;28;20117;-77
2020/12/01 12:33:32;;;;;;;6.72;1.10;;;10.10;94.90;;;;;;5010776;28;20029;-76
2020/12/01 12:35:59;;;;;;;9.73;0.75;;;10.10;94.80;;;;;;5012145;28;20029;-76
2020/12/01 12:38:26;;;;;;;4.18;1.10;;;10.10;94.80;;;;;;5011162;28;20048;-76
2020/12/01 12:40:52;;;;;;;1.63;0.60;;;10.10;94.80;;;;;;5010157;28;20484;-76
2020/12/01 12:43:19;;;;;;;4.95;0.75;;;10.20;94.80;;;;;;5010907;28;20059;-76
2020/12/01 12:45:45;;;;;;;0.77;0.57;;;10.20;94.70;;;;;;5010553;28;20022;-76
2020/12/01 12:48:11;;;;;;;3.30;1.08;;;10.20;94.70;;;;;;5011234;28;20108;-77
2020/12/01 12:50:37;;;;;;;0.60;0.60;;;10.20;94.60;;;;;;5010438;28;20374;-76
2020/12/01 12:53:02;;;;;;;2.70;0.73;;;10.30;94.60;;;;;;5010231;28;20046;-76
2020/12/01 12:55:28;;;;;;;3.50;0.65;;;10.30;94.60;;;;;;5012480;28;20034;-77
2020/12/01 12:57:54;;;;;;;3.10;0.80;;;10.30;94.60;;;;;;5014194;28;20034;-77
2020/12/01 13:00:20;;;;;;;3.78;0.65;;;10.30;94.60;;;;;;5014653;28;20049;-77
2020/12/01 13:02:45;;;;;;;0.88;0.50;;;10.40;94.60;;;;;;5013936;28;20120;-77
2020/12/01 13:05:11;;;;;;;1.50;0.65;;;10.30;94.50;;;;;;5013482;28;20117;-76
2020/12/01 13:07:37;;;;;;;4.00;0.60;;;10.40;94.50;;;;;;5015322;28;20033;-77
2020/12/01 13:10:03;;;;;;;0.40;0.40;;;10.40;94.50;;;;;;5013938;28;20099;-77
2020/12/01 13:12:29;;;;;;;1.42;0.80;;;10.30;94.40;;;;;;5013319;28;20466;-77
2020/12/01 13:14:55;;;;;;;8.98;0.73;;;10.30;94.50;;;;;;5013947;28;20033;-77
2020/12/01 13:17:20;;;;;;;1.67;1.17;;;10.30;94.50;;;;;;5014418;28;20033;-75
2020/12/01 13:19:46;;;;;;;1.00;0.52;;;10.30;94.50;;;;;;5013821;28;20073;-75
2020/12/01 13:22:11;;;;;;;2.25;0.70;;;10.30;94.50;;;;;;5013062;28;20029;-76
2020/12/01 13:24:37;;;;;;;0.63;0.52;;;10.30;94.50;;;;;;5014888;28;20134;-76
2020/12/01 13:27:03;;;;;;;2.75;1.13;;;10.40;94.50;;;;;;5014758;28;20030;-76
2020/12/01 13:29:28;;;;;;;1.08;0.45;;;10.30;94.40;;;;;;5012948;28;20045;-76
2020/12/01 13:31:54;;;;;;;0.90;0.60;;;10.40;94.70;;;;;;5013481;28;20026;-75
2020/12/01 13:34:19;;;;;;;3.83;0.70;;;10.30;94.40;;;;;;5013893;28;20026;-76
2020/12/01 13:36:45;;;;;;;1.90;0.57;;;10.30;94.40;;;;;;5013365;28;20477;-75
2020/12/01 13:39:12;;;;;;;1.27;0.73;;;10.30;94.40;;;;;;5014043;28;20048;-76
2020/12/01 13:41:37;;;;;;;1.85;0.55;;;10.30;94.50;;;;;;5013227;28;20033;-76
2020/12/01 13:44:03;;;;;;;1.70;0.38;;;10.40;94.40;;;;;;5013303;28;20018;-76
2020/12/01 13:46:29;;;;;;;2.75;0.60;;;10.50;94.30;;;;;;5013682;28;20033;-77
2020/12/01 13:48:54;;;;;;;5.72;0.80;;;10.50;94.30;;;;;;5013426;28;20028;-77
2020/12/01 13:51:20;;;;;;;1.90;0.47;;;10.50;94.10;;;;;;5012513;28;20026;-77
2020/12/01 13:53:46;;;;;;;2.83;0.50;;;10.50;94.10;;;;;;5012558;28;20137;-76
2020/12/01 13:56:12;;;;;;;2.45;0.40;;;10.50;94.10;;;;;;5013800;28;20018;-77
2020/12/01 13:58:37;;;;;;;0.82;0.60;;;10.50;94.10;;;;;;5014246;28;20033;-77
2020/12/01 14:01:03;;;;;;;0.82;0.60;;;10.50;94.10;;;;;;5012916;28;20041;-76